Time;durP1;ratioP1;P1;durP2;ratioP2;P2;SDS_P1;SDS_P2;PMS_P1;PMS_P2;Temp;Humidity;BMP_temperature;BMP_pressure;BME280_temperature;BME280_humidity;BME280_pressure;Samples;Min_cycle;Max_cycle;Signal;HPM_P1;HPM_P2
2023/09/15 00:01:51;;;;;;;1999.90;999.90;;;11.60;99.90;;;;;;4909623;29;20067;-86
2023/09/15 00:04:17;;;;;;;1999.90;999.90;;;11.50;99.90;;;;;;4912215;29;20056;-85
2023/09/15 00:06:46;;;;;;;1999.90;999.90;;;11.50;99.90;;;;;;4896250;29;20044;-86
2023/09/15 00:09:31;;;;;;;1999.90;999.90;;;11.50;99.90;;;;;;4911895;29;20128;-86
2023/09/15 00:12:03;;;;;;;1999.90;999.90;;;11.50;99.90;;;;;;4895860;29;20213;-86
2023/09/15 00:14:32;;;;;;;1999.90;999.90;;;11.50;99.90;;;;;;4896983;29;20048;-85
2023/09/15 00:16:58;;;;;;;1999.90;999.90;;;11.50;99.90;;;;;;4895924;29;20404;-86
2023/09/15 00:19:36;;;;;;;1999.90;999.90;;;11.40;99.90;;;;;;4896728;29;20048;-86
2023/09/15 00:22:01;;;;;;;1999.90;999.90;;;11.40;99.90;;;;;;4883345;29;20480;-86
2023/09/15 00:24:28;;;;;;;1999.90;999.90;;;11.40;99.90;;;;;;4912115;29;20054;-85
2023/09/15 00:26:58;;;;;;;1999.90;999.90;;;11.40;99.90;;;;;;4895505;29;20488;-85
2023/09/15 00:29:24;;;;;;;1999.90;999.90;;;11.30;99.90;;;;;;4895922;29;20086;-86
2023/09/15 00:31:55;;;;;;;1999.90;999.90;;;11.40;99.90;;;;;;4912099;29;20137;-86
2023/09/15 00:34:29;;;;;;;1999.90;999.90;;;11.40;99.90;;;;;;4896061;29;20462;-86
2023/09/15 00:36:55;;;;;;;1999.90;999.90;;;11.30;99.90;;;;;;4894852;29;20056;-86
2023/09/15 00:39:27;;;;;;;1999.90;999.90;;;11.20;99.90;;;;;;4896372;29;20048;-85
2023/09/15 00:41:55;;;;;;;1999.90;999.90;;;11.20;99.90;;;;;;4911331;29;20056;-86
2023/09/15 00:44:36;;;;;;;1999.90;999.90;;;11.10;99.90;;;;;;4896954;29;20055;-86
2023/09/15 00:47:05;;;;;;;1999.90;999.90;;;11.20;99.90;;;;;;4895777;29;20052;-85
2023/09/15 00:49:46;;;;;;;1999.90;999.90;;;11.10;99.90;;;;;;4895432;29;20043;-85
2023/09/15 00:52:13;;;;;;;1999.90;999.90;;;11.10;99.90;;;;;;4911097;29;20094;-85
2023/09/15 00:54:44;;;;;;;1999.90;999.90;;;11.10;99.90;;;;;;4895824;29;20048;-85
2023/09/15 00:57:12;;;;;;;1999.90;999.90;;;11.00;99.90;;;;;;4893396;29;20051;-85
2023/09/15 00:59:38;;;;;;;1999.90;999.90;;;11.00;99.90;;;;;;4896029;29;20048;-85
2023/09/15 01:02:04;;;;;;;1999.90;999.90;;;11.00;99.90;;;;;;4910362;29;20056;-86
2023/09/15 01:04:33;;;;;;;1999.90;999.90;;;11.00;99.90;;;;;;4895385;29;20044;-85
2023/09/15 01:07:03;;;;;;;1999.90;999.90;;;10.90;99.90;;;;;;4895723;29;20036;-85
2023/09/15 01:09:32;;;;;;;1999.90;999.90;;;11.00;99.90;;;;;;4911199;29;20595;-85
2023/09/15 01:11:58;;;;;;;1999.90;999.90;;;10.90;99.90;;;;;;4894324;29;20056;-85
2023/09/15 01:14:24;;;;;;;1999.90;999.90;;;10.90;99.90;;;;;;4895576;29;20052;-86
2023/09/15 01:16:59;;;;;;;1999.90;999.90;;;10.90;99.90;;;;;;4894945;29;20039;-86
2023/09/15 01:19:33;;;;;;;1999.90;999.90;;;10.90;99.90;;;;;;4910900;29;20464;-85
2023/09/15 01:22:32;;;;;;;1999.90;999.90;;;10.90;99.90;;;;;;4910823;29;20553;-86
2023/09/15 01:25:34;;;;;;;1939.82;999.90;;;10.80;99.90;;;;;;4894660;29;20511;-86
2023/09/15 01:28:22;;;;;;;1738.80;999.90;;;10.80;99.90;;;;;;4910849;29;20480;-86
2023/09/15 01:30:53;;;;;;;1786.60;999.90;;;10.80;99.90;;;;;;4894631;29;20052;-86
2023/09/15 01:33:24;;;;;;;1999.90;999.90;;;10.80;99.90;;;;;;4898894;29;20111;-86
2023/09/15 01:35:51;;;;;;;1777.47;999.90;;;10.70;99.90;;;;;;4894681;29;20120;-86
2023/09/15 01:38:17;;;;;;;1882.38;999.90;;;10.70;99.90;;;;;;4910809;29;20514;-86
2023/09/15 01:40:45;;;;;;;1737.18;999.90;;;10.70;99.90;;;;;;4893791;29;20047;-86
2023/09/15 01:43:20;;;;;;;1192.05;964.55;;;10.70;99.90;;;;;;4894569;29;20052;-86
2023/09/15 01:45:46;;;;;;;1229.22;974.67;;;10.70;99.90;;;;;;4909025;29;20036;-86
2023/09/15 01:48:12;;;;;;;1264.97;972.80;;;10.60;99.90;;;;;;4894206;29;20623;-86
2023/09/15 01:50:39;;;;;;;1272.53;988.67;;;10.60;99.90;;;;;;4894682;29;20055;-86
2023/09/15 01:53:05;;;;;;;1183.10;951.20;;;10.60;99.90;;;;;;4909713;29;20435;-86
2023/09/15 01:55:33;;;;;;;1191.72;965.10;;;10.60;99.90;;;;;;4894566;29;20043;-86
2023/09/15 01:57:58;;;;;;;1281.22;978.05;;;10.70;99.90;;;;;;4891243;29;20044;-85
2023/09/15 02:00:24;;;;;;;1323.95;998.33;;;10.70;99.90;;;;;;4893801;29;20052;-86
2023/09/15 02:02:52;;;;;;;1160.22;949.70;;;10.50;99.90;;;;;;4894346;29;20044;-85
2023/09/15 02:05:27;;;;;;;1335.05;993.45;;;10.50;99.90;;;;;;4894809;29;20044;-85
2023/09/15 02:07:53;;;;;;;1216.05;969.42;;;10.10;99.90;;;;;;4909111;29;20071;-85
2023/09/15 02:10:19;;;;;;;1327.38;990.58;;;10.50;99.90;;;;;;4910547;29;20433;-86
2023/09/15 02:12:56;;;;;;;1317.90;984.97;;;10.40;99.90;;;;;;4909952;29;20060;-86
2023/09/15 02:15:33;;;;;;;1348.63;997.10;;;10.40;99.90;;;;;;4893262;29;20076;-85
2023/09/15 02:17:59;;;;;;;1197.72;966.17;;;10.40;99.90;;;;;;4894177;29;20044;-85
2023/09/15 02:20:31;;;;;;;1232.55;971.33;;;10.40;99.90;;;;;;4894080;29;20052;-85
2023/09/15 02:23:03;;;;;;;1268.75;987.63;;;10.30;99.90;;;;;;4893120;29;20119;-85
2023/09/15 02:25:35;;;;;;;1284.93;983.67;;;10.40;99.90;;;;;;4893755;29;20141;-85
2023/09/15 02:28:02;;;;;;;1281.03;993.85;;;10.30;99.90;;;;;;4893547;29;20386;-85
2023/09/15 02:30:40;;;;;;;1326.53;997.47;;;10.30;99.90;;;;;;4894590;29;20052;-85
2023/09/15 02:33:06;;;;;;;1183.30;961.95;;;10.30;99.90;;;;;;4909018;29;20048;-85
2023/09/15 02:35:32;;;;;;;1199.93;958.95;;;10.30;99.90;;;;;;4893881;29;20040;-85
2023/09/15 02:37:58;;;;;;;1335.75;996.03;;;10.10;99.90;;;;;;4893628;29;20167;-85
2023/09/15 02:40:38;;;;;;;1133.53;955.38;;;10.20;99.90;;;;;;4893975;29;20120;-85
2023/09/15 02:43:04;;;;;;;1302.15;992.00;;;10.20;99.90;;;;;;4909202;29;20477;-86
2023/09/15 02:45:33;;;;;;;1156.28;955.83;;;10.20;99.90;;;;;;4894246;29;20059;-86
2023/09/15 02:48:07;;;;;;;1266.78;980.92;;;10.30;99.90;;;;;;4909222;29;20118;-86
2023/09/15 02:50:33;;;;;;;1253.53;988.28;;;10.10;99.90;;;;;;4908562;29;20048;-85
2023/09/15 02:53:00;;;;;;;1172.32;963.60;;;10.10;99.90;;;;;;4894100;29;20055;-86
2023/09/15 02:55:26;;;;;;;1277.68;997.00;;;10.10;99.90;;;;;;4894052;29;20044;-86
2023/09/15 02:57:52;;;;;;;1298.28;997.55;;;10.10;99.90;;;;;;4902787;29;20107;-86
2023/09/15 03:00:19;;;;;;;1265.32;997.85;;;10.00;99.90;;;;;;4893565;29;20044;-84
2023/09/15 03:02:46;;;;;;;1157.53;968.70;;;10.00;99.90;;;;;;4908756;29;20052;-86
2023/09/15 03:05:12;;;;;;;1275.00;995.17;;;10.00;99.90;;;;;;4893470;29;20144;-86
2023/09/15 03:07:44;;;;;;;1166.88;977.03;;;10.00;99.90;;;;;;4894045;29;20067;-85
2023/09/15 03:10:10;;;;;;;1334.47;999.90;;;9.90;99.90;;;;;;4893222;29;20084;-86
2023/09/15 03:12:36;;;;;;;1900.68;999.90;;;9.90;99.90;;;;;;4893314;29;20440;-86
2023/09/15 03:15:06;;;;;;;1999.90;999.90;;;9.90;99.90;;;;;;4894085;29;20481;-86
2023/09/15 03:17:37;;;;;;;1682.10;999.90;;;9.90;99.90;;;;;;4892550;29;20763;-86
2023/09/15 03:20:13;;;;;;;1170.63;974.40;;;9.80;99.90;;;;;;4893915;29;20036;-86
2023/09/15 03:22:50;;;;;;;1999.90;999.90;;;9.80;99.90;;;;;;4893362;29;20187;-86
2023/09/15 03:25:16;;;;;;;1999.90;999.90;;;9.80;99.90;;;;;;4897094;29;20040;-86
2023/09/15 03:27:47;;;;;;;1999.90;999.90;;;9.80;99.90;;;;;;4893167;29;20066;-86
2023/09/15 03:30:13;;;;;;;1999.90;999.90;;;9.70;99.90;;;;;;4893299;29;20047;-85
2023/09/15 03:32:38;;;;;;;1999.90;999.90;;;9.70;99.90;;;;;;4892930;29;20111;-86
2023/09/15 03:35:06;;;;;;;1999.90;999.90;;;9.70;99.90;;;;;;4913256;29;20044;-85
2023/09/15 03:37:32;;;;;;;1444.20;998.47;;;9.70;99.90;;;;;;4896028;29;20506;-85
2023/09/15 03:39:58;;;;;;;1999.90;999.90;;;9.70;99.90;;;;;;4896598;29;20055;-85
2023/09/15 03:42:24;;;;;;;1999.90;999.90;;;9.60;99.90;;;;;;4895827;29;20496;-85
2023/09/15 03:44:52;;;;;;;1999.90;999.90;;;9.60;99.90;;;;;;4896958;29;20036;-85
2023/09/15 03:47:18;;;;;;;1994.45;999.90;;;9.60;99.90;;;;;;4910787;29;20083;-85
2023/09/15 03:49:44;;;;;;;1999.90;999.90;;;9.70;99.90;;;;;;4896604;29;20088;-85
2023/09/15 03:52:10;;;;;;;1997.63;999.90;;;9.50;99.90;;;;;;4896791;29;20048;-85
2023/09/15 03:54:36;;;;;;;1271.88;992.95;;;9.50;99.90;;;;;;4895558;29;20044;-85
2023/09/15 03:57:03;;;;;;;1377.13;999.90;;;9.50;99.90;;;;;;4911883;29;20063;-86
2023/09/15 03:59:29;;;;;;;1354.43;999.90;;;9.50;99.90;;;;;;4885948;29;20055;-85
2023/09/15 04:01:55;;;;;;;1999.90;999.90;;;9.50;99.90;;;;;;4895694;29;20060;-86
2023/09/15 04:04:20;;;;;;;1999.90;999.90;;;9.50;99.90;;;;;;4896484;29;20063;-85
2023/09/15 04:06:46;;;;;;;1999.90;999.90;;;9.50;99.90;;;;;;4910675;29;20048;-85
2023/09/15 04:09:15;;;;;;;1999.90;999.90;;;9.50;99.90;;;;;;4896899;29;20040;-85
2023/09/15 04:11:40;;;;;;;1700.13;999.90;;;9.50;99.90;;;;;;4894856;29;20476;-85
2023/09/15 04:14:06;;;;;;;1999.90;999.90;;;9.50;99.90;;;;;;4911616;29;20048;-86
2023/09/15 04:16:33;;;;;;;1999.90;999.90;;;9.60;99.90;;;;;;4896166;29;20052;-85
2023/09/15 04:18:58;;;;;;;1999.90;999.90;;;9.50;99.90;;;;;;4895951;29;20111;-86
2023/09/15 04:21:24;;;;;;;1867.30;996.70;;;9.50;99.90;;;;;;4895831;29;20555;-86
2023/09/15 04:23:50;;;;;;;1837.55;999.90;;;9.70;99.90;;;;;;4891938;29;20050;-85
2023/09/15 04:26:16;;;;;;;1999.90;999.90;;;9.40;99.90;;;;;;4891578;29;20040;-86
2023/09/15 04:28:47;;;;;;;1999.90;999.90;;;9.40;99.90;;;;;;4910858;29;20040;-85
2023/09/15 04:31:13;;;;;;;1999.90;999.90;;;9.40;99.90;;;;;;4896127;29;20075;-85
2023/09/15 04:33:38;;;;;;;1828.90;999.90;;;9.30;99.90;;;;;;4895093;29;20576;-85
2023/09/15 04:36:04;;;;;;;1334.63;998.78;;;9.30;99.90;;;;;;4911567;29;20875;-86
2023/09/15 04:38:30;;;;;;;1290.43;998.63;;;9.30;99.90;;;;;;4912006;29;20070;-86
2023/09/15 04:40:56;;;;;;;1262.72;998.35;;;9.50;99.90;;;;;;4909362;29;20086;-86
2023/09/15 04:43:22;;;;;;;1999.90;999.90;;;9.30;99.90;;;;;;4894127;29;20075;-86
2023/09/15 04:45:57;;;;;;;1846.07;999.90;;;9.30;99.90;;;;;;4894747;29;20043;-85
2023/09/15 04:48:23;;;;;;;1601.97;999.90;;;9.30;99.90;;;;;;4895881;29;20056;-86
2023/09/15 04:50:51;;;;;;;1999.90;999.90;;;9.30;99.90;;;;;;4894598;29;20050;-85
2023/09/15 04:53:20;;;;;;;1999.90;999.90;;;9.30;99.90;;;;;;4886556;29;20064;-87
2023/09/15 04:55:48;;;;;;;1158.60;973.15;;;9.20;99.90;;;;;;4892972;29;20154;-86
2023/09/15 04:58:13;;;;;;;1920.20;999.90;;;9.20;99.90;;;;;;4894071;29;20044;-86
2023/09/15 05:00:40;;;;;;;1962.07;999.90;;;9.20;99.90;;;;;;4893288;29;20532;-86
2023/09/15 05:03:08;;;;;;;1234.13;987.65;;;8.50;99.90;;;;;;4893015;29;20051;-85
2023/09/15 05:05:43;;;;;;;1330.03;997.67;;;9.20;99.90;;;;;;4893270;29;20092;-86
2023/09/15 05:08:09;;;;;;;1282.03;996.00;;;9.40;99.90;;;;;;4895217;29;20127;-86
2023/09/15 05:10:40;;;;;;;1305.30;999.50;;;9.20;99.90;;;;;;4909890;29;20521;-85
2023/09/15 05:13:08;;;;;;;1259.07;987.47;;;9.20;99.90;;;;;;4911326;29;20256;-86
2023/09/15 05:15:34;;;;;;;1489.60;999.25;;;9.20;99.90;;;;;;4895373;29;20044;-85
2023/09/15 05:18:00;;;;;;;1434.78;999.85;;;9.20;99.90;;;;;;4894254;29;20134;-86
2023/09/15 05:20:26;;;;;;;1469.88;999.90;;;9.20;99.90;;;;;;4895502;29;20131;-85
2023/09/15 05:22:52;;;;;;;1387.85;999.90;;;9.20;99.90;;;;;;4910319;29;20055;-85
2023/09/15 05:25:17;;;;;;;1545.32;999.90;;;9.20;99.90;;;;;;4894663;29;20135;-85
2023/09/15 05:27:43;;;;;;;1802.40;999.90;;;9.30;99.90;;;;;;4909772;29;20116;-85
2023/09/15 05:30:09;;;;;;;1833.95;999.90;;;9.20;99.90;;;;;;4910831;29;20055;-85
2023/09/15 05:32:35;;;;;;;1735.07;999.90;;;9.30;99.90;;;;;;4893528;29;20500;-86
2023/09/15 05:35:06;;;;;;;1595.75;999.90;;;9.30;99.90;;;;;;4894742;29;20059;-86
2023/09/15 05:37:31;;;;;;;1753.72;999.90;;;9.30;99.90;;;;;;4894512;29;20064;-85
2023/09/15 05:39:58;;;;;;;1584.50;999.90;;;9.30;99.90;;;;;;4894153;29;20055;-85
2023/09/15 05:42:23;;;;;;;1546.32;999.90;;;9.30;99.90;;;;;;4894234;29;20052;-85
2023/09/15 05:44:49;;;;;;;1557.28;999.90;;;9.40;99.90;;;;;;4894250;29;20052;-85
2023/09/15 05:47:15;;;;;;;1506.50;999.90;;;9.40;99.90;;;;;;4909727;29;20484;-85
2023/09/15 05:49:40;;;;;;;1452.25;999.90;;;9.70;99.90;;;;;;4895031;29;20051;-85
2023/09/15 05:52:09;;;;;;;1999.90;999.90;;;9.50;99.90;;;;;;4893468;29;20394;-85
2023/09/15 05:54:35;;;;;;;1317.07;999.90;;;9.60;99.90;;;;;;4910730;29;20070;-85
2023/09/15 05:57:01;;;;;;;1911.43;999.90;;;9.60;99.90;;;;;;4893109;29;20052;-85
2023/09/15 05:59:28;;;;;;;1447.68;999.90;;;9.60;99.90;;;;;;4893988;29;20071;-86
2023/09/15 06:01:56;;;;;;;1473.93;999.90;;;9.70;99.90;;;;;;4909592;29;20074;-85
2023/09/15 06:04:30;;;;;;;1584.22;999.90;;;9.70;99.90;;;;;;4894850;29;20044;-86
2023/09/15 06:06:56;;;;;;;1799.43;999.90;;;9.80;99.90;;;;;;4893195;29;20048;-85
2023/09/15 06:09:22;;;;;;;1829.57;999.90;;;9.80;99.90;;;;;;4894733;29;20051;-86
2023/09/15 06:11:47;;;;;;;1908.63;999.90;;;9.90;99.90;;;;;;4892224;29;20107;-86
2023/09/15 06:14:13;;;;;;;1919.57;999.90;;;10.00;99.90;;;;;;4893717;29;20127;-86
2023/09/15 06:16:39;;;;;;;1666.65;999.90;;;10.10;99.90;;;;;;4893981;29;20043;-86
2023/09/15 06:19:06;;;;;;;1842.82;999.90;;;10.10;99.90;;;;;;4893961;29;20051;-86
2023/09/15 06:21:32;;;;;;;1893.75;999.90;;;10.20;99.90;;;;;;4893078;29;20131;-86
2023/09/15 06:23:58;;;;;;;1753.35;999.90;;;10.20;99.90;;;;;;4894023;29;20162;-86
2023/09/15 06:26:24;;;;;;;1554.80;999.90;;;10.30;99.90;;;;;;4910103;29;20056;-86
2023/09/15 06:28:50;;;;;;;1502.72;999.90;;;10.40;99.90;;;;;;4909224;29;20437;-85
2023/09/15 06:31:18;;;;;;;1488.22;999.90;;;10.50;99.90;;;;;;4893656;29;20152;-86
2023/09/15 06:33:50;;;;;;;1479.35;999.90;;;10.50;99.90;;;;;;4894533;29;20576;-85
2023/09/15 06:36:22;;;;;;;1473.07;999.90;;;10.60;99.90;;;;;;4892929;29;20097;-85
2023/09/15 06:38:56;;;;;;;1277.07;999.90;;;10.70;99.90;;;;;;4893791;29;20047;-85
2023/09/15 06:41:22;;;;;;;1141.47;991.42;;;10.70;99.90;;;;;;4909073;29;20052;-85
2023/09/15 06:43:50;;;;;;;1184.65;998.42;;;10.80;99.90;;;;;;4893179;29;20059;-85
2023/09/15 06:46:20;;;;;;;1144.00;992.50;;;10.90;99.90;;;;;;4882219;29;20040;-86
2023/09/15 06:48:46;;;;;;;1188.88;998.90;;;11.00;99.90;;;;;;4908189;29;20069;-85
2023/09/15 06:51:32;;;;;;;1096.93;971.50;;;11.10;99.90;;;;;;4896038;29;20044;-86
2023/09/15 06:53:58;;;;;;;1110.40;982.97;;;11.20;99.90;;;;;;4893860;29;20455;-86
2023/09/15 06:56:23;;;;;;;1078.55;962.22;;;11.20;99.90;;;;;;4892905;29;20569;-85
2023/09/15 06:58:49;;;;;;;1043.28;935.78;;;11.30;99.90;;;;;;4898761;29;20114;-85
2023/09/15 07:01:15;;;;;;;1059.88;948.22;;;11.40;99.90;;;;;;4894152;29;20099;-86
2023/09/15 07:03:41;;;;;;;1046.75;939.88;;;11.50;99.90;;;;;;4907646;29;20060;-85
2023/09/15 07:06:06;;;;;;;1030.00;923.78;;;11.60;99.90;;;;;;4894198;29;20056;-86
2023/09/15 07:08:32;;;;;;;1027.78;922.83;;;11.70;99.90;;;;;;4895564;29;20079;-85
2023/09/15 07:10:58;;;;;;;995.67;898.63;;;11.80;99.90;;;;;;4912194;29;20048;-85
2023/09/15 07:13:24;;;;;;;997.30;901.10;;;11.90;99.90;;;;;;4897170;29;20059;-82
2023/09/15 07:15:49;;;;;;;983.92;889.13;;;11.90;99.90;;;;;;4913482;29;20052;-82
2023/09/15 07:18:15;;;;;;;998.10;900.75;;;12.00;99.90;;;;;;4911791;29;20044;-82
2023/09/15 07:20:41;;;;;;;958.33;868.20;;;12.10;99.90;;;;;;4913144;29;20131;-82
2023/09/15 07:23:07;;;;;;;985.20;889.55;;;12.20;99.90;;;;;;4913182;29;20130;-83
2023/09/15 07:25:33;;;;;;;941.90;854.10;;;12.30;99.90;;;;;;4911947;29;20517;-81
2023/09/15 07:27:59;;;;;;;954.22;866.13;;;12.40;99.90;;;;;;4912867;29;20040;-84
2023/09/15 07:30:25;;;;;;;956.78;863.30;;;12.50;99.90;;;;;;4912706;29;20040;-85
2023/09/15 07:32:54;;;;;;;946.25;855.80;;;12.60;99.90;;;;;;4896256;29;20507;-84
2023/09/15 07:35:22;;;;;;;912.55;829.83;;;12.70;99.90;;;;;;4913268;29;20464;-85
2023/09/15 07:37:48;;;;;;;895.50;814.38;;;12.80;99.90;;;;;;4896068;29;20083;-85
2023/09/15 07:40:14;;;;;;;861.83;786.80;;;12.90;99.90;;;;;;4913113;29;20401;-84
2023/09/15 07:42:40;;;;;;;853.75;778.50;;;13.00;99.90;;;;;;4912159;29;20051;-85
2023/09/15 07:45:06;;;;;;;856.85;781.85;;;13.10;99.90;;;;;;4895597;29;20062;-85
2023/09/15 07:47:33;;;;;;;820.03;749.20;;;13.20;99.90;;;;;;4894890;29;20413;-86
2023/09/15 07:49:59;;;;;;;852.20;777.20;;;13.30;99.90;;;;;;4895841;29;20111;-86
2023/09/15 07:52:30;;;;;;;842.08;768.03;;;13.40;99.90;;;;;;4895723;29;20059;-86
2023/09/15 07:54:56;;;;;;;836.50;763.30;;;13.50;99.90;;;;;;4910971;29;20055;-86
2023/09/15 07:57:25;;;;;;;873.00;796.38;;;13.60;99.90;;;;;;4893690;29;20444;-86
2023/09/15 07:59:51;;;;;;;815.90;744.45;;;13.70;99.90;;;;;;4894677;29;20059;-86
2023/09/15 08:03:00;;;;;;;797.05;729.45;;;13.80;99.90;;;;;;4893890;29;20574;-86
2023/09/15 08:05:35;;;;;;;788.85;722.28;;;13.90;99.90;;;;;;4893264;29;20135;-86
2023/09/15 08:08:10;;;;;;;741.83;680.30;;;14.10;99.90;;;;;;4894159;29;20044;-86
2023/09/15 08:10:41;;;;;;;722.80;664.17;;;14.20;99.90;;;;;;4902725;29;20060;-86
2023/09/15 08:13:07;;;;;;;710.70;652.63;;;14.30;99.90;;;;;;4893923;29;20043;-86
2023/09/15 08:15:33;;;;;;;717.38;658.22;;;14.40;99.90;;;;;;4911568;29;20103;-85
2023/09/15 08:17:59;;;;;;;695.97;638.92;;;14.40;99.90;;;;;;4895289;29;20131;-86
2023/09/15 08:20:26;;;;;;;721.85;662.75;;;14.50;99.90;;;;;;4896194;29;20090;-86
2023/09/15 08:22:58;;;;;;;662.78;609.15;;;14.60;99.90;;;;;;4911583;29;20058;-86
2023/09/15 08:25:27;;;;;;;654.25;602.60;;;14.70;99.90;;;;;;4896975;29;20055;-86
2023/09/15 08:27:52;;;;;;;635.17;585.05;;;14.80;99.90;;;;;;4894902;29;20044;-86
2023/09/15 08:30:22;;;;;;;687.97;632.38;;;14.90;99.90;;;;;;4896438;29;20076;-86
2023/09/15 08:32:57;;;;;;;617.75;569.40;;;15.00;99.90;;;;;;4911091;29;20048;-86
2023/09/15 08:35:23;;;;;;;702.17;645.35;;;15.10;99.90;;;;;;4895861;29;20491;-87
2023/09/15 08:37:48;;;;;;;669.05;614.63;;;15.20;99.90;;;;;;4895502;29;20135;-86
2023/09/15 08:40:14;;;;;;;681.00;625.45;;;15.40;99.90;;;;;;4896481;29;20804;-86
2023/09/15 08:42:40;;;;;;;594.38;547.38;;;15.40;99.90;;;;;;4909767;29;20084;-86
2023/09/15 08:45:13;;;;;;;663.75;609.05;;;15.50;99.90;;;;;;4912319;29;20489;-86
2023/09/15 08:47:56;;;;;;;641.85;590.00;;;15.60;99.90;;;;;;4894520;29;20198;-85
2023/09/15 08:50:32;;;;;;;545.58;502.58;;;15.90;99.90;;;;;;4895543;29;20063;-87
2023/09/15 08:53:00;;;;;;;440.15;408.42;;;15.80;99.90;;;;;;4885102;29;20492;-86
2023/09/15 08:55:41;;;;;;;299.83;279.50;;;15.90;99.90;;;;;;4894941;29;20521;-86
2023/09/15 08:58:09;;;;;;;305.38;284.95;;;16.00;99.90;;;;;;4892694;29;20514;-86
2023/09/15 09:00:36;;;;;;;356.52;330.58;;;16.00;99.90;;;;;;4895726;29;20059;-86
2023/09/15 09:03:03;;;;;;;336.95;313.10;;;16.10;99.90;;;;;;4894675;29;20172;-87
2023/09/15 09:05:35;;;;;;;421.20;389.15;;;16.20;99.90;;;;;;4911546;29;20428;-87
2023/09/15 09:08:12;;;;;;;407.58;377.58;;;16.30;99.90;;;;;;4895968;29;20048;-86
2023/09/15 09:10:48;;;;;;;387.52;358.35;;;16.40;99.90;;;;;;4911593;29;20134;-87
2023/09/15 09:13:14;;;;;;;338.02;314.38;;;16.60;99.90;;;;;;4894630;29;20052;-83
2023/09/15 09:15:41;;;;;;;235.68;219.90;;;16.60;99.90;;;;;;4910439;29;20071;-83
2023/09/15 09:18:17;;;;;;;226.48;210.88;;;16.70;99.90;;;;;;4909449;29;20052;-83
2023/09/15 09:20:43;;;;;;;360.98;332.25;;;16.70;99.90;;;;;;4894429;29;20103;-85
2023/09/15 09:23:09;;;;;;;348.60;323.10;;;16.90;99.90;;;;;;4910024;29;20555;-85
2023/09/15 09:25:35;;;;;;;250.23;233.13;;;17.00;99.90;;;;;;4894270;29;20060;-85
2023/09/15 09:28:03;;;;;;;292.17;270.17;;;17.00;99.90;;;;;;4895406;29;20051;-85
2023/09/15 09:30:29;;;;;;;461.92;423.90;;;17.20;99.90;;;;;;4909066;29;20059;-85
2023/09/15 09:32:56;;;;;;;326.55;303.27;;;17.20;99.90;;;;;;4909565;29;20459;-86
2023/09/15 09:35:25;;;;;;;352.08;326.67;;;17.30;99.90;;;;;;4910658;29;20147;-86
2023/09/15 09:38:01;;;;;;;356.83;331.95;;;17.40;99.90;;;;;;4894638;29;20169;-85
2023/09/15 09:40:39;;;;;;;321.92;300.02;;;17.50;99.90;;;;;;4893994;29;20123;-85
2023/09/15 09:43:08;;;;;;;369.92;343.48;;;17.50;99.90;;;;;;4893159;29;20107;-85
2023/09/15 09:45:34;;;;;;;291.30;270.15;;;17.50;99.90;;;;;;4893699;29;20051;-86
2023/09/15 09:48:00;;;;;;;362.85;335.27;;;17.60;99.90;;;;;;4893601;29;20040;-86
2023/09/15 09:50:26;;;;;;;354.85;328.60;;;17.70;99.90;;;;;;4894740;29;20044;-84
2023/09/15 09:52:55;;;;;;;414.08;384.27;;;17.80;99.90;;;;;;4897469;29;20466;-85
2023/09/15 09:55:36;;;;;;;388.75;358.90;;;17.80;99.90;;;;;;4894247;29;20058;-85
2023/09/15 09:58:05;;;;;;;448.05;412.10;;;17.90;99.90;;;;;;4894474;29;20048;-84
2023/09/15 10:00:33;;;;;;;412.35;380.55;;;17.90;99.90;;;;;;4893975;29;20051;-84
2023/09/15 10:02:59;;;;;;;353.95;327.42;;;17.90;99.90;;;;;;4894150;29;20044;-85
2023/09/15 10:05:26;;;;;;;400.08;369.60;;;18.00;99.90;;;;;;4893662;29;20070;-86
2023/09/15 10:07:52;;;;;;;408.70;377.25;;;18.10;99.90;;;;;;4894101;29;20055;-85
2023/09/15 10:10:19;;;;;;;324.38;300.75;;;18.20;99.90;;;;;;4910146;29;20044;-86
2023/09/15 10:12:45;;;;;;;396.58;365.58;;;18.30;99.90;;;;;;4892880;29;20043;-86
2023/09/15 10:15:11;;;;;;;430.98;396.00;;;18.40;99.90;;;;;;4894594;29;20032;-86
2023/09/15 10:17:38;;;;;;;378.15;348.63;;;18.40;99.90;;;;;;4909197;29;20064;-84
2023/09/15 10:20:04;;;;;;;400.08;367.88;;;18.50;99.90;;;;;;4909598;29;20040;-86
2023/09/15 10:22:31;;;;;;;382.55;354.42;;;18.50;99.90;;;;;;4894332;29;20059;-86
2023/09/15 10:24:58;;;;;;;364.67;336.83;;;18.60;99.90;;;;;;4909898;29;20119;-86
2023/09/15 10:27:25;;;;;;;388.92;357.95;;;18.50;99.90;;;;;;4893571;29;20059;-87
2023/09/15 10:29:51;;;;;;;428.30;393.90;;;18.50;99.90;;;;;;4893544;29;20047;-86
2023/09/15 10:32:17;;;;;;;349.98;324.08;;;18.60;99.90;;;;;;4893849;29;20055;-85
2023/09/15 10:34:47;;;;;;;333.17;308.98;;;18.70;99.90;;;;;;4908554;29;20040;-86
2023/09/15 10:37:14;;;;;;;358.98;331.60;;;18.70;99.90;;;;;;4894088;29;20469;-86
2023/09/15 10:39:41;;;;;;;429.95;394.75;;;18.80;99.90;;;;;;4908259;29;20044;-86
2023/09/15 10:42:13;;;;;;;405.05;373.88;;;18.90;99.90;;;;;;4892934;29;20051;-86
2023/09/15 10:44:40;;;;;;;346.08;319.55;;;19.00;99.90;;;;;;4896909;29;20055;-86
2023/09/15 10:47:20;;;;;;;490.10;449.25;;;19.00;99.90;;;;;;4913406;29;20055;-86
2023/09/15 10:49:51;;;;;;;365.30;338.35;;;19.10;99.90;;;;;;4909934;29;20055;-87
2023/09/15 10:52:30;;;;;;;515.17;472.10;;;19.10;99.90;;;;;;4911933;29;20186;-87
2023/09/15 10:54:56;;;;;;;471.80;432.45;;;19.10;99.90;;;;;;4910232;29;20048;-87
2023/09/15 10:57:22;;;;;;;459.92;422.75;;;19.20;99.90;;;;;;4896442;29;20500;-85
2023/09/15 10:59:50;;;;;;;496.80;454.73;;;19.20;99.90;;;;;;4897164;29;20063;-86
2023/09/15 11:02:17;;;;;;;472.73;434.20;;;19.30;99.90;;;;;;4911474;29;20076;-86
2023/09/15 11:04:43;;;;;;;466.20;428.98;;;19.30;99.90;;;;;;4897229;29;20477;-85
2023/09/15 11:07:09;;;;;;;451.52;416.65;;;19.30;99.90;;;;;;4897303;29;20060;-86
2023/09/15 11:09:35;;;;;;;513.45;472.40;;;19.40;99.90;;;;;;4896852;29;20475;-86
2023/09/15 11:12:04;;;;;;;493.90;453.10;;;19.40;99.90;;;;;;4913002;29;20040;-86
2023/09/15 11:14:30;;;;;;;533.92;489.20;;;19.40;99.90;;;;;;4897488;29;20511;-87
2023/09/15 11:16:57;;;;;;;505.63;464.55;;;19.50;99.90;;;;;;4896391;29;20184;-86
2023/09/15 11:19:26;;;;;;;486.15;446.67;;;19.50;99.90;;;;;;4897228;29;20457;-86
2023/09/15 11:21:52;;;;;;;420.55;387.27;;;19.60;99.90;;;;;;4896825;29;20492;-86
2023/09/15 11:24:18;;;;;;;504.90;463.15;;;19.60;99.90;;;;;;4896651;29;20131;-87
2023/09/15 11:26:52;;;;;;;516.08;472.92;;;19.70;99.90;;;;;;4912759;29;20119;-86
2023/09/15 11:29:24;;;;;;;517.35;474.65;;;19.70;99.90;;;;;;4896931;29;20422;-87
2023/09/15 11:31:52;;;;;;;510.50;469.25;;;19.70;99.90;;;;;;4897071;29;20087;-87
2023/09/15 11:34:27;;;;;;;437.48;401.75;;;19.70;99.90;;;;;;4897023;29;20500;-86
2023/09/15 11:37:06;;;;;;;465.80;429.25;;;19.80;99.90;;;;;;4912918;29;20115;-87
2023/09/15 11:39:32;;;;;;;509.98;468.63;;;19.80;99.90;;;;;;4896771;29;20048;-85
2023/09/15 11:42:17;;;;;;;446.42;411.85;;;19.80;99.90;;;;;;4896721;29;20142;-87
2023/09/15 11:44:46;;;;;;;472.98;434.52;;;19.90;99.90;;;;;;4883068;29;20104;-85
2023/09/15 11:47:15;;;;;;;463.98;427.60;;;19.80;99.90;;;;;;4897138;29;20298;-86
2023/09/15 11:49:54;;;;;;;493.75;453.65;;;19.90;99.90;;;;;;4897407;29;20075;-87
2023/09/15 11:52:35;;;;;;;414.23;382.90;;;19.90;99.90;;;;;;4896868;29;20082;-88
2023/09/15 11:58:23;;;;;;;522.15;479.00;;;20.00;99.90;;;;;;4918479;29;20108;-86
2023/09/15 12:00:50;;;;;;;542.92;498.35;;;20.00;99.90;;;;;;4896726;29;20095;-87
2023/09/15 12:03:18;;;;;;;418.52;385.33;;;20.10;99.90;;;;;;4912739;29;20070;-86
2023/09/15 12:05:44;;;;;;;411.20;380.25;;;20.20;99.90;;;;;;4911199;29;20044;-87
2023/09/15 12:08:11;;;;;;;369.75;341.98;;;20.20;99.90;;;;;;4896494;29;20048;-87
2023/09/15 12:10:36;;;;;;;505.83;461.55;;;20.20;99.90;;;;;;4896539;29;20048;-87
2023/09/15 12:13:03;;;;;;;525.53;482.58;;;20.20;99.90;;;;;;4895878;29;20078;-86
2023/09/15 12:15:29;;;;;;;491.10;451.42;;;20.20;99.90;;;;;;4900289;29;20052;-87
2023/09/15 12:18:01;;;;;;;464.48;428.92;;;20.30;99.90;;;;;;4895068;29;20608;-87